sensor_id;sensor_type;location;lat;lon;timestamp;pressure;altitude;pressure_sealevel;temperature;humidity
55733;BME280;41637;52.364;9.910;2023-03-04T00:01:34;101488.23;;;3.96;79.67
55733;BME280;41637;52.364;9.910;2023-03-04T00:04:01;101486.36;;;3.97;79.87
55733;BME280;41637;52.364;9.910;2023-03-04T00:06:28;101487.42;;;3.99;79.83
55733;BME280;41637;52.364;9.910;2023-03-04T00:08:57;101486.78;;;4.01;79.58
55733;BME280;41637;52.364;9.910;2023-03-04T00:11:27;101489.16;;;4.02;79.43
55733;BME280;41637;52.364;9.910;2023-03-04T00:13:54;101491.06;;;4.03;79.30
55733;BME280;41637;52.364;9.910;2023-03-04T00:16:22;101494.95;;;4.06;79.47
55733;BME280;41637;52.364;9.910;2023-03-04T00:18:55;101491.09;;;4.07;79.26
55733;BME280;41637;52.364;9.910;2023-03-04T00:21:22;101490.77;;;4.09;79.26
55733;BME280;41637;52.364;9.910;2023-03-04T00:23:50;101490.94;;;4.09;79.23
55733;BME280;41637;52.364;9.910;2023-03-04T00:26:17;101488.55;;;4.11;79.13
55733;BME280;41637;52.364;9.910;2023-03-04T00:28:44;101485.50;;;4.14;79.07
55733;BME280;41637;52.364;9.910;2023-03-04T00:31:11;101484.90;;;4.13;79.21
55733;BME280;41637;52.364;9.910;2023-03-04T00:33:39;101485.83;;;4.15;79.21
55733;BME280;41637;52.364;9.910;2023-03-04T00:36:06;101477.60;;;4.17;79.15
55733;BME280;41637;52.364;9.910;2023-03-04T00:38:34;101479.38;;;4.19;79.03
55733;BME280;41637;52.364;9.910;2023-03-04T00:41:04;101478.27;;;4.17;78.59
55733;BME280;41637;52.364;9.910;2023-03-04T00:43:31;101475.22;;;4.18;78.88
55733;BME280;41637;52.364;9.910;2023-03-04T00:46:01;101472.80;;;4.18;78.67
55733;BME280;41637;52.364;9.910;2023-03-04T00:48:28;101471.04;;;4.18;78.83
55733;BME280;41637;52.364;9.910;2023-03-04T00:50:55;101470.56;;;4.20;78.86
55733;BME280;41637;52.364;9.910;2023-03-04T00:53:22;101468.02;;;4.19;78.80
55733;BME280;41637;52.364;9.910;2023-03-04T00:55:50;101467.80;;;4.19;79.04
55733;BME280;41637;52.364;9.910;2023-03-04T00:58:20;101468.05;;;4.21;78.98
55733;BME280;41637;52.364;9.910;2023-03-04T01:00:47;101463.55;;;4.22;79.02
55733;BME280;41637;52.364;9.910;2023-03-04T01:03:14;101462.52;;;4.24;79.10
55733;BME280;41637;52.364;9.910;2023-03-04T01:05:41;101465.77;;;4.25;79.04
55733;BME280;41637;52.364;9.910;2023-03-04T01:08:08;101463.63;;;4.26;79.02
55733;BME280;41637;52.364;9.910;2023-03-04T01:10:38;101464.41;;;4.25;79.17
55733;BME280;41637;52.364;9.910;2023-03-04T01:13:08;101461.01;;;4.25;79.11
55733;BME280;41637;52.364;9.910;2023-03-04T01:15:36;101456.16;;;4.27;79.11
55733;BME280;41637;52.364;9.910;2023-03-04T01:18:02;101454.79;;;4.27;79.18
55733;BME280;41637;52.364;9.910;2023-03-04T01:20:30;101452.40;;;4.26;79.22
55733;BME280;41637;52.364;9.910;2023-03-04T01:22:57;101456.64;;;4.28;79.24
55733;BME280;41637;52.364;9.910;2023-03-04T01:25:25;101453.13;;;4.30;79.24
55733;BME280;41637;52.364;9.910;2023-03-04T01:27:52;101446.02;;;4.29;79.36
55733;BME280;41637;52.364;9.910;2023-03-04T01:30:22;101441.66;;;4.31;79.40
55733;BME280;41637;52.364;9.910;2023-03-04T01:32:49;101438.70;;;4.34;79.25
55733;BME280;41637;52.364;9.910;2023-03-04T01:35:16;101436.21;;;4.34;79.36
55733;BME280;41637;52.364;9.910;2023-03-04T01:37:43;101431.20;;;4.33;79.48
55733;BME280;41637;52.364;9.910;2023-03-04T01:40:11;101431.53;;;4.33;79.62
55733;BME280;41637;52.364;9.910;2023-03-04T01:42:40;101424.76;;;4.35;79.68
55733;BME280;41637;52.364;9.910;2023-03-04T01:45:11;101426.93;;;4.34;79.62
55733;BME280;41637;52.364;9.910;2023-03-04T01:47:39;101419.22;;;4.34;79.76
55733;BME280;41637;52.364;9.910;2023-03-04T01:50:10;101416.09;;;4.34;79.74
55733;BME280;41637;52.364;9.910;2023-03-04T01:52:42;101407.52;;;4.36;79.80
55733;BME280;41637;52.364;9.910;2023-03-04T01:55:17;101399.70;;;4.35;79.66
55733;BME280;41637;52.364;9.910;2023-03-04T01:57:46;101395.41;;;4.36;79.86
55733;BME280;41637;52.364;9.910;2023-03-04T02:02:57;101387.58;;;4.33;80.10
55733;BME280;41637;52.364;9.910;2023-03-04T02:05:25;101385.17;;;4.35;80.14
55733;BME280;41637;52.364;9.910;2023-03-04T02:07:54;101378.43;;;4.36;80.14
55733;BME280;41637;52.364;9.910;2023-03-04T02:10:22;101378.42;;;4.39;80.29
55733;BME280;41637;52.364;9.910;2023-03-04T02:12:54;101379.52;;;4.40;80.13
55733;BME280;41637;52.364;9.910;2023-03-04T02:15:24;101376.73;;;4.40;80.33
55733;BME280;41637;52.364;9.910;2023-03-04T02:17:51;101374.42;;;4.38;80.54
55733;BME280;41637;52.364;9.910;2023-03-04T02:26:20;101368.34;;;4.40;80.87
55733;BME280;41637;52.364;9.910;2023-03-04T02:28:52;101366.66;;;4.39;80.85
55733;BME280;41637;52.364;9.910;2023-03-04T02:31:23;101358.77;;;4.41;80.90
55733;BME280;41637;52.364;9.910;2023-03-04T02:33:53;101355.50;;;4.43;80.97
55733;BME280;41637;52.364;9.910;2023-03-04T02:36:20;101357.91;;;4.43;80.96
55733;BME280;41637;52.364;9.910;2023-03-04T02:38:54;101353.23;;;4.45;80.98
55733;BME280;41637;52.364;9.910;2023-03-04T02:41:23;101352.66;;;4.45;81.07
55733;BME280;41637;52.364;9.910;2023-03-04T02:43:54;101348.81;;;4.45;81.45
55733;BME280;41637;52.364;9.910;2023-03-04T02:46:22;101346.48;;;4.46;81.32
55733;BME280;41637;52.364;9.910;2023-03-04T02:48:50;101346.25;;;4.49;81.40
55733;BME280;41637;52.364;9.910;2023-03-04T02:51:17;101346.69;;;4.48;81.55
55733;BME280;41637;52.364;9.910;2023-03-04T02:53:45;101346.28;;;4.49;81.39
55733;BME280;41637;52.364;9.910;2023-03-04T02:56:13;101345.25;;;4.51;81.53
55733;BME280;41637;52.364;9.910;2023-03-04T02:58:41;101344.08;;;4.50;81.58
55733;BME280;41637;52.364;9.910;2023-03-04T03:01:08;101348.88;;;4.52;81.55
55733;BME280;41637;52.364;9.910;2023-03-04T03:03:35;101350.74;;;4.50;81.61
55733;BME280;41637;52.364;9.910;2023-03-04T03:06:03;101345.17;;;4.52;81.69
55733;BME280;41637;52.364;9.910;2023-03-04T03:08:33;101343.86;;;4.51;81.90
55733;BME280;41637;52.364;9.910;2023-03-04T03:11:00;101347.14;;;4.52;81.75
55733;BME280;41637;52.364;9.910;2023-03-04T03:13:27;101351.63;;;4.52;82.00
55733;BME280;41637;52.364;9.910;2023-03-04T03:15:56;101349.88;;;4.52;82.08
55733;BME280;41637;52.364;9.910;2023-03-04T03:18:26;101343.05;;;4.50;82.21
55733;BME280;41637;52.364;9.910;2023-03-04T03:20:53;101343.39;;;4.50;82.28
55733;BME280;41637;52.364;9.910;2023-03-04T03:23:23;101339.19;;;4.50;82.34
55733;BME280;41637;52.364;9.910;2023-03-04T03:25:50;101336.40;;;4.52;82.46
55733;BME280;41637;52.364;9.910;2023-03-04T03:28:20;101340.63;;;4.52;82.49
55733;BME280;41637;52.364;9.910;2023-03-04T03:30:48;101338.02;;;4.51;82.70
55733;BME280;41637;52.364;9.910;2023-03-04T03:33:16;101333.77;;;4.52;82.53
55733;BME280;41637;52.364;9.910;2023-03-04T03:35:44;101330.52;;;4.56;82.56
55733;BME280;41637;52.364;9.910;2023-03-04T03:38:11;101340.98;;;4.54;82.37
55733;BME280;41637;52.364;9.910;2023-03-04T03:40:39;101329.53;;;4.57;82.81
55733;BME280;41637;52.364;9.910;2023-03-04T03:43:06;101330.00;;;4.56;82.96
55733;BME280;41637;52.364;9.910;2023-03-04T03:45:37;101325.22;;;4.56;82.99
55733;BME280;41637;52.364;9.910;2023-03-04T03:48:04;101328.83;;;4.55;83.13
55733;BME280;41637;52.364;9.910;2023-03-04T03:50:31;101324.30;;;4.55;83.05
55733;BME280;41637;52.364;9.910;2023-03-04T03:52:59;101324.77;;;4.58;82.89
55733;BME280;41637;52.364;9.910;2023-03-04T03:55:29;101332.30;;;4.58;82.81
55733;BME280;41637;52.364;9.910;2023-03-04T03:57:56;101327.40;;;4.58;82.87
55733;BME280;41637;52.364;9.910;2023-03-04T04:00:23;101322.67;;;4.60;82.99
55733;BME280;41637;52.364;9.910;2023-03-04T04:02:55;101323.17;;;4.60;83.13
55733;BME280;41637;52.364;9.910;2023-03-04T04:05:36;101317.86;;;4.59;83.33
55733;BME280;41637;52.364;9.910;2023-03-04T04:08:03;101321.59;;;4.56;83.60
55733;BME280;41637;52.364;9.910;2023-03-04T04:10:33;101319.62;;;4.54;84.19
55733;BME280;41637;52.364;9.910;2023-03-04T04:13:03;101316.13;;;4.51;84.43
55733;BME280;41637;52.364;9.910;2023-03-04T04:15:30;101316.66;;;4.47;85.02
55733;BME280;41637;52.364;9.910;2023-03-04T04:17:58;101308.48;;;4.46;84.99
55733;BME280;41637;52.364;9.910;2023-03-04T04:20:27;101312.72;;;4.44;85.36
55733;BME280;41637;52.364;9.910;2023-03-04T04:22:54;101315.17;;;4.41;85.67
55733;BME280;41637;52.364;9.910;2023-03-04T04:25:21;101309.77;;;4.39;86.04
55733;BME280;41637;52.364;9.910;2023-03-04T04:27:48;101310.98;;;4.37;86.32
55733;BME280;41637;52.364;9.910;2023-03-04T04:30:21;101307.15;;;4.34;86.45
55733;BME280;41637;52.364;9.910;2023-03-04T04:32:48;101308.91;;;4.32;86.45
55733;BME280;41637;52.364;9.910;2023-03-04T04:35:15;101303.65;;;4.32;86.43
55733;BME280;41637;52.364;9.910;2023-03-04T04:37:44;101301.33;;;4.33;86.46
55733;BME280;41637;52.364;9.910;2023-03-04T04:40:11;101300.64;;;4.35;86.02
55733;BME280;41637;52.364;9.910;2023-03-04T04:42:39;101297.58;;;4.36;86.01
55733;BME280;41637;52.364;9.910;2023-03-04T04:45:06;101294.83;;;4.37;86.15
55733;BME280;41637;52.364;9.910;2023-03-04T04:47:33;101296.52;;;4.36;86.67
55733;BME280;41637;52.364;9.910;2023-03-04T04:50:00;101296.95;;;4.35;86.98
55733;BME280;41637;52.364;9.910;2023-03-04T04:52:28;101294.95;;;4.35;87.26
55733;BME280;41637;52.364;9.910;2023-03-04T04:54:55;101297.63;;;4.33;87.87
55733;BME280;41637;52.364;9.910;2023-03-04T04:57:23;101288.86;;;4.26;88.89
55733;BME280;41637;52.364;9.910;2023-03-04T04:59:55;101287.84;;;4.21;89.92
55733;BME280;41637;52.364;9.910;2023-03-04T05:02:22;101282.34;;;4.17;90.37
55733;BME280;41637;52.364;9.910;2023-03-04T05:04:49;101286.88;;;4.09;91.34
55733;BME280;41637;52.364;9.910;2023-03-04T05:07:16;101277.38;;;4.05;91.67
55733;BME280;41637;52.364;9.910;2023-03-04T05:09:44;101278.25;;;4.00;92.20
55733;BME280;41637;52.364;9.910;2023-03-04T05:12:11;101277.58;;;3.95;92.58
55733;BME280;41637;52.364;9.910;2023-03-04T05:14:39;101280.48;;;3.92;93.00
55733;BME280;41637;52.364;9.910;2023-03-04T05:17:09;101274.84;;;3.87;93.41
55733;BME280;41637;52.364;9.910;2023-03-04T05:19:40;101266.73;;;3.88;93.27
55733;BME280;41637;52.364;9.910;2023-03-04T05:22:08;101271.91;;;3.87;93.60
55733;BME280;41637;52.364;9.910;2023-03-04T05:24:34;101270.23;;;3.84;93.88
55733;BME280;41637;52.364;9.910;2023-03-04T05:27:10;101273.65;;;3.83;93.79
55733;BME280;41637;52.364;9.910;2023-03-04T05:29:37;101276.30;;;3.82;93.71
55733;BME280;41637;52.364;9.910;2023-03-04T05:32:12;101270.54;;;3.82;93.70
55733;BME280;41637;52.364;9.910;2023-03-04T05:34:39;101276.94;;;3.83;93.75
55733;BME280;41637;52.364;9.910;2023-03-04T05:37:06;101276.20;;;3.83;93.79
55733;BME280;41637;52.364;9.910;2023-03-04T05:39:33;101274.27;;;3.84;93.50
55733;BME280;41637;52.364;9.910;2023-03-04T05:42:01;101274.91;;;3.84;93.60
55733;BME280;41637;52.364;9.910;2023-03-04T05:44:28;101285.14;;;3.83;93.61
55733;BME280;41637;52.364;9.910;2023-03-04T05:46:55;101277.15;;;3.82;94.00
55733;BME280;41637;52.364;9.910;2023-03-04T05:49:22;101291.36;;;3.78;94.76
55733;BME280;41637;52.364;9.910;2023-03-04T05:51:49;101282.42;;;3.78;94.54
55733;BME280;41637;52.364;9.910;2023-03-04T05:54:16;101279.98;;;3.75;94.88
55733;BME280;41637;52.364;9.910;2023-03-04T05:56:44;101275.55;;;3.76;94.69
55733;BME280;41637;52.364;9.910;2023-03-04T05:59:13;101277.33;;;3.78;94.66
55733;BME280;41637;52.364;9.910;2023-03-04T06:01:46;101277.36;;;3.78;94.47
55733;BME280;41637;52.364;9.910;2023-03-04T06:04:13;101280.16;;;3.82;94.30
55733;BME280;41637;52.364;9.910;2023-03-04T06:06:40;101285.60;;;3.82;94.20
55733;BME280;41637;52.364;9.910;2023-03-04T06:09:07;101282.77;;;3.85;93.74
55733;BME280;41637;52.364;9.910;2023-03-04T06:11:34;101270.88;;;3.89;93.90
55733;BME280;41637;52.364;9.910;2023-03-04T06:14:07;101273.64;;;3.92;93.75
55733;BME280;41637;52.364;9.910;2023-03-04T06:16:34;101279.30;;;3.94;93.67
55733;BME280;41637;52.364;9.910;2023-03-04T06:19:01;101283.14;;;3.93;94.18
55733;BME280;41637;52.364;9.910;2023-03-04T06:21:28;101280.73;;;3.93;94.23
55733;BME280;41637;52.364;9.910;2023-03-04T06:23:55;101281.09;;;3.93;94.22
55733;BME280;41637;52.364;9.910;2023-03-04T06:26:25;101274.78;;;3.95;93.86
55733;BME280;41637;52.364;9.910;2023-03-04T06:28:52;101273.83;;;3.96;93.96
55733;BME280;41637;52.364;9.910;2023-03-04T06:31:22;101272.90;;;3.97;93.95
55733;BME280;41637;52.364;9.910;2023-03-04T06:33:50;101272.40;;;3.99;94.05
55733;BME280;41637;52.364;9.910;2023-03-04T06:36:17;101276.23;;;3.99;94.34
55733;BME280;41637;52.364;9.910;2023-03-04T06:38:44;101278.33;;;3.97;94.73
55733;BME280;41637;52.364;9.910;2023-03-04T06:41:12;101280.84;;;3.96;95.14
55733;BME280;41637;52.364;9.910;2023-03-04T06:43:39;101284.17;;;3.94;95.13
55733;BME280;41637;52.364;9.910;2023-03-04T06:46:07;101282.23;;;3.94;95.57
55733;BME280;41637;52.364;9.910;2023-03-04T06:48:35;101282.76;;;3.94;95.55
55733;BME280;41637;52.364;9.910;2023-03-04T06:51:06;101288.44;;;3.95;95.43
55733;BME280;41637;52.364;9.910;2023-03-04T06:53:33;101288.60;;;3.97;95.15
55733;BME280;41637;52.364;9.910;2023-03-04T06:56:00;101277.88;;;4.00;95.39
55733;BME280;41637;52.364;9.910;2023-03-04T06:58:27;101275.20;;;4.03;95.32
55733;BME280;41637;52.364;9.910;2023-03-04T07:00:55;101278.91;;;4.07;94.88
55733;BME280;41637;52.364;9.910;2023-03-04T07:03:22;101283.16;;;4.12;94.60
55733;BME280;41637;52.364;9.910;2023-03-04T07:05:53;101282.51;;;4.11;94.94
55733;BME280;41637;52.364;9.910;2023-03-04T07:08:20;101282.96;;;4.05;96.08
55733;BME280;41637;52.364;9.910;2023-03-04T07:10:53;101277.98;;;3.99;96.52
55733;BME280;41637;52.364;9.910;2023-03-04T07:13:20;101280.67;;;3.98;97.09
55733;BME280;41637;52.364;9.910;2023-03-04T07:15:48;101279.48;;;3.98;97.21
55733;BME280;41637;52.364;9.910;2023-03-04T07:18:15;101276.29;;;3.98;97.20
55733;BME280;41637;52.364;9.910;2023-03-04T07:20:42;101273.19;;;4.00;97.03
55733;BME280;41637;52.364;9.910;2023-03-04T07:23:10;101276.98;;;4.03;97.23
55733;BME280;41637;52.364;9.910;2023-03-04T07:25:37;101275.27;;;4.07;96.98
55733;BME280;41637;52.364;9.910;2023-03-04T07:28:04;101281.45;;;4.11;96.84
55733;BME280;41637;52.364;9.910;2023-03-04T07:30:31;101279.24;;;4.15;96.54
55733;BME280;41637;52.364;9.910;2023-03-04T07:32:58;101278.75;;;4.16;96.64
55733;BME280;41637;52.364;9.910;2023-03-04T07:35:28;101280.36;;;4.21;96.52
55733;BME280;41637;52.364;9.910;2023-03-04T07:37:55;101281.61;;;4.20;96.91
55733;BME280;41637;52.364;9.910;2023-03-04T07:40:22;101280.31;;;4.17;97.64
55733;BME280;41637;52.364;9.910;2023-03-04T07:42:50;101284.83;;;4.15;98.23
55733;BME280;41637;52.364;9.910;2023-03-04T07:45:18;101288.15;;;4.13;98.74
55733;BME280;41637;52.364;9.910;2023-03-04T07:47:46;101280.80;;;4.15;98.59
55733;BME280;41637;52.364;9.910;2023-03-04T07:50:13;101281.27;;;4.20;98.48
55733;BME280;41637;52.364;9.910;2023-03-04T07:52:47;101284.02;;;4.23;98.11
55733;BME280;41637;52.364;9.910;2023-03-04T07:55:17;101288.98;;;4.29;97.75
55733;BME280;41637;52.364;9.910;2023-03-04T07:57:45;101286.70;;;4.38;97.30
55733;BME280;41637;52.364;9.910;2023-03-04T08:00:14;101283.16;;;4.50;96.81
55733;BME280;41637;52.364;9.910;2023-03-04T08:02:41;101288.13;;;4.60;96.12
55733;BME280;41637;52.364;9.910;2023-03-04T08:05:12;101289.62;;;4.70;95.24
55733;BME280;41637;52.364;9.910;2023-03-04T08:07:39;101283.77;;;4.78;94.84
55733;BME280;41637;52.364;9.910;2023-03-04T08:10:06;101284.86;;;4.83;94.70
55733;BME280;41637;52.364;9.910;2023-03-04T08:12:34;101284.71;;;4.85;94.67
55733;BME280;41637;52.364;9.910;2023-03-04T08:15:02;101280.01;;;4.85;95.01
55733;BME280;41637;52.364;9.910;2023-03-04T08:17:32;101285.60;;;4.79;95.99
55733;BME280;41637;52.364;9.910;2023-03-04T08:19:59;101282.20;;;4.75;96.80
55733;BME280;41637;52.364;9.910;2023-03-04T08:22:26;101288.19;;;4.70;97.63
55733;BME280;41637;52.364;9.910;2023-03-04T08:24:53;101281.13;;;4.64;98.57
55733;BME280;41637;52.364;9.910;2023-03-04T08:27:20;101283.13;;;4.63;99.26
55733;BME280;41637;52.364;9.910;2023-03-04T08:29:47;101281.65;;;4.60;99.79
55733;BME280;41637;52.364;9.910;2023-03-04T08:32:13;101284.11;;;4.56;100.00
55733;BME280;41637;52.364;9.910;2023-03-04T08:34:41;101277.48;;;4.53;100.00
55733;BME280;41637;52.364;9.910;2023-03-04T08:37:07;101280.33;;;4.50;100.00
55733;BME280;41637;52.364;9.910;2023-03-04T08:39:37;101277.47;;;4.48;100.00
55733;BME280;41637;52.364;9.910;2023-03-04T08:42:04;101283.40;;;4.51;100.00
55733;BME280;41637;52.364;9.910;2023-03-04T08:44:31;101282.39;;;4.48;100.00
55733;BME280;41637;52.364;9.910;2023-03-04T08:46:58;101279.69;;;4.47;100.00
55733;BME280;41637;52.364;9.910;2023-03-04T08:49:32;101286.37;;;4.49;100.00
55733;BME280;41637;52.364;9.910;2023-03-04T08:52:01;101295.11;;;4.49;100.00
55733;BME280;41637;52.364;9.910;2023-03-04T08:54:31;101283.19;;;4.47;100.00
55733;BME280;41637;52.364;9.910;2023-03-04T08:56:58;101286.30;;;4.50;100.00
55733;BME280;41637;52.364;9.910;2023-03-04T08:59:25;101288.44;;;4.50;100.00
55733;BME280;41637;52.364;9.910;2023-03-04T09:01:53;101290.55;;;4.45;100.00
55733;BME280;41637;52.364;9.910;2023-03-04T09:04:20;101293.39;;;4.44;100.00
55733;BME280;41637;52.364;9.910;2023-03-04T09:06:47;101290.77;;;4.44;100.00
55733;BME280;41637;52.364;9.910;2023-03-04T09:09:14;101294.71;;;4.45;100.00
55733;BME280;41637;52.364;9.910;2023-03-04T09:11:44;101291.13;;;4.44;100.00
55733;BME280;41637;52.364;9.910;2023-03-04T09:14:11;101291.17;;;4.46;100.00
55733;BME280;41637;52.364;9.910;2023-03-04T09:16:38;101286.42;;;4.48;100.00
55733;BME280;41637;52.364;9.910;2023-03-04T09:19:05;101290.86;;;4.52;100.00
55733;BME280;41637;52.364;9.910;2023-03-04T09:21:32;101299.52;;;4.51;100.00
55733;BME280;41637;52.364;9.910;2023-03-04T09:24:02;101296.11;;;4.55;100.00
55733;BME280;41637;52.364;9.910;2023-03-04T09:26:29;101299.62;;;4.54;100.00
55733;BME280;41637;52.364;9.910;2023-03-04T09:28:58;101296.02;;;4.58;100.00
55733;BME280;41637;52.364;9.910;2023-03-04T09:31:29;101295.93;;;4.68;100.00
55733;BME280;41637;52.364;9.910;2023-03-04T09:33:59;101293.11;;;4.86;100.00
55733;BME280;41637;52.364;9.910;2023-03-04T09:36:25;101297.69;;;5.03;100.00
55733;BME280;41637;52.364;9.910;2023-03-04T09:38:59;101295.48;;;5.17;100.00
55733;BME280;41637;52.364;9.910;2023-03-04T09:41:35;101300.40;;;5.26;100.00
55733;BME280;41637;52.364;9.910;2023-03-04T09:44:10;101294.59;;;5.37;100.00
55733;BME280;41637;52.364;9.910;2023-03-04T09:46:42;101294.02;;;5.50;100.00
55733;BME280;41637;52.364;9.910;2023-03-04T09:49:11;101290.04;;;5.49;99.47
55733;BME280;41637;52.364;9.910;2023-03-04T09:54:46;101289.89;;;5.45;98.77
55733;BME280;41637;52.364;9.910;2023-03-04T10:00:25;101288.89;;;5.36;98.73
55733;BME280;41637;52.364;9.910;2023-03-04T10:11:10;101288.98;;;5.26;99.95
55733;BME280;41637;52.364;9.910;2023-03-04T10:16:22;101291.84;;;5.40;95.13
55733;BME280;41637;52.364;9.910;2023-03-04T10:19:20;101284.23;;;5.50;95.22
55733;BME280;41637;52.364;9.910;2023-03-04T10:21:52;101283.83;;;5.61;94.47
55733;BME280;41637;52.364;9.910;2023-03-04T10:24:21;101289.39;;;5.63;93.09
55733;BME280;41637;52.364;9.910;2023-03-04T10:26:53;101280.67;;;5.69;92.37
55733;BME280;41637;52.364;9.910;2023-03-04T10:29:27;101283.45;;;5.78;91.61
55733;BME280;41637;52.364;9.910;2023-03-04T10:31:55;101279.44;;;5.86;90.89
55733;BME280;41637;52.364;9.910;2023-03-04T10:34:23;101273.81;;;5.90;90.83
55733;BME280;41637;52.364;9.910;2023-03-04T10:37:02;101275.46;;;5.83;89.81
55733;BME280;41637;52.364;9.910;2023-03-04T10:39:36;101281.38;;;5.71;89.68
55733;BME280;41637;52.364;9.910;2023-03-04T10:42:06;101281.08;;;5.56;89.53
55733;BME280;41637;52.364;9.910;2023-03-04T10:44:56;101280.00;;;5.39;89.95
55733;BME280;41637;52.364;9.910;2023-03-04T10:47:31;101267.96;;;5.35;91.17
55733;BME280;41637;52.364;9.910;2023-03-04T10:50:02;101266.19;;;5.32;92.33
55733;BME280;41637;52.364;9.910;2023-03-04T10:52:39;101275.64;;;5.28;92.60
55733;BME280;41637;52.364;9.910;2023-03-04T10:55:19;101275.66;;;5.28;93.23
55733;BME280;41637;52.364;9.910;2023-03-04T10:58:02;101274.78;;;5.32;93.80
55733;BME280;41637;52.364;9.910;2023-03-04T11:03:21;101275.49;;;5.47;94.17
55733;BME280;41637;52.364;9.910;2023-03-04T11:06:02;101276.01;;;5.60;92.30
55733;BME280;41637;52.364;9.910;2023-03-04T11:08:32;101275.83;;;5.81;89.71
55733;BME280;41637;52.364;9.910;2023-03-04T11:10:59;101280.52;;;5.94;88.01
55733;BME280;41637;52.364;9.910;2023-03-04T11:13:26;101277.02;;;5.92;86.98
55733;BME280;41637;52.364;9.910;2023-03-04T11:16:04;101283.45;;;5.67;87.31
55733;BME280;41637;52.364;9.910;2023-03-04T11:18:54;101290.79;;;5.40;88.31
55733;BME280;41637;52.364;9.910;2023-03-04T11:21:28;101278.47;;;5.30;88.85
55733;BME280;41637;52.364;9.910;2023-03-04T11:26:45;101278.61;;;5.56;89.40
55733;BME280;41637;52.364;9.910;2023-03-04T11:32:14;101272.91;;;5.88;87.98
55733;BME280;41637;52.364;9.910;2023-03-04T11:34:53;101277.34;;;6.05;86.09
55733;BME280;41637;52.364;9.910;2023-03-04T11:37:36;101271.16;;;6.07;83.66
55733;BME280;41637;52.364;9.910;2023-03-04T11:40:44;101271.99;;;6.14;82.18
55733;BME280;41637;52.364;9.910;2023-03-04T11:43:24;101264.53;;;6.29;82.27
55733;BME280;41637;52.364;9.910;2023-03-04T11:57:38;101243.62;;;7.38;78.35
55733;BME280;41637;52.364;9.910;2023-03-04T12:05:28;101256.30;;;7.22;76.16
55733;BME280;41637;52.364;9.910;2023-03-04T12:14:20;101228.29;;;6.62;74.52
55733;BME280;41637;52.364;9.910;2023-03-04T12:17:23;101225.59;;;6.76;73.58
55733;BME280;41637;52.364;9.910;2023-03-04T12:20:04;101224.14;;;7.54;71.69
55733;BME280;41637;52.364;9.910;2023-03-04T12:25:57;101216.59;;;9.31;64.16
55733;BME280;41637;52.364;9.910;2023-03-04T12:28:44;101222.21;;;9.25;62.78
55733;BME280;41637;52.364;9.910;2023-03-04T12:31:33;101214.01;;;9.11;64.52
55733;BME280;41637;52.364;9.910;2023-03-04T12:37:18;101216.96;;;8.66;64.22
55733;BME280;41637;52.364;9.910;2023-03-04T12:39:36;101212.78;;;8.32;65.09
55733;BME280;41637;52.364;9.910;2023-03-04T12:44:59;101232.64;;;7.80;66.72
55733;BME280;41637;52.364;9.910;2023-03-04T12:53:39;101223.25;;;7.24;71.72
55733;BME280;41637;52.364;9.910;2023-03-04T12:57:01;101209.33;;;7.20;73.58
55733;BME280;41637;52.364;9.910;2023-03-04T12:59:13;101205.79;;;7.15;71.77
55733;BME280;41637;52.364;9.910;2023-03-04T13:01:59;101203.61;;;6.98;69.79
55733;BME280;41637;52.364;9.910;2023-03-04T13:05:14;101203.67;;;6.94;70.50
55733;BME280;41637;52.364;9.910;2023-03-04T13:10:16;101218.36;;;6.83;68.07
55733;BME280;41637;52.364;9.910;2023-03-04T13:12:56;101202.20;;;6.79;67.75
55733;BME280;41637;52.364;9.910;2023-03-04T13:17:58;101197.26;;;7.14;68.17
55733;BME280;41637;52.364;9.910;2023-03-04T13:20:40;101211.86;;;7.14;68.39
55733;BME280;41637;52.364;9.910;2023-03-04T13:28:31;101200.76;;;6.65;65.45
55733;BME280;41637;52.364;9.910;2023-03-04T13:31:20;101196.66;;;6.72;64.48
55733;BME280;41637;52.364;9.910;2023-03-04T13:33:53;101186.67;;;6.89;64.16
55733;BME280;41637;52.364;9.910;2023-03-04T13:36:31;101191.29;;;6.94;64.67
55733;BME280;41637;52.364;9.910;2023-03-04T13:39:02;101194.01;;;6.91;65.10
55733;BME280;41637;52.364;9.910;2023-03-04T13:41:46;101198.81;;;6.93;65.37
55733;BME280;41637;52.364;9.910;2023-03-04T13:47:15;101199.36;;;6.79;64.51
55733;BME280;41637;52.364;9.910;2023-03-04T13:49:43;101209.59;;;6.65;64.78
55733;BME280;41637;52.364;9.910;2023-03-04T13:52:48;101195.30;;;6.61;65.83
55733;BME280;41637;52.364;9.910;2023-03-04T13:56:07;101192.98;;;6.56;65.91
55733;BME280;41637;52.364;9.910;2023-03-04T13:58:46;101193.71;;;6.49;66.53
55733;BME280;41637;52.364;9.910;2023-03-04T14:01:29;101207.36;;;6.34;65.33
55733;BME280;41637;52.364;9.910;2023-03-04T14:03:58;101194.58;;;6.24;65.84
55733;BME280;41637;52.364;9.910;2023-03-04T14:06:30;101190.84;;;6.16;66.84
55733;BME280;41637;52.364;9.910;2023-03-04T14:08:58;101199.20;;;6.05;67.16
55733;BME280;41637;52.364;9.910;2023-03-04T14:11:35;101189.40;;;5.98;67.74
55733;BME280;41637;52.364;9.910;2023-03-04T14:14:14;101189.27;;;5.95;68.07
55733;BME280;41637;52.364;9.910;2023-03-04T14:16:49;101196.73;;;5.90;68.35
55733;BME280;41637;52.364;9.910;2023-03-04T14:22:32;101191.16;;;5.96;68.81
55733;BME280;41637;52.364;9.910;2023-03-04T14:25:14;101191.66;;;6.06;68.64
55733;BME280;41637;52.364;9.910;2023-03-04T14:27:45;101185.70;;;6.12;68.56
55733;BME280;41637;52.364;9.910;2023-03-04T14:30:24;101195.63;;;6.09;69.13
55733;BME280;41637;52.364;9.910;2023-03-04T14:33:14;101187.84;;;6.00;71.52
55733;BME280;41637;52.364;9.910;2023-03-04T14:35:48;101194.33;;;5.92;72.60
55733;BME280;41637;52.364;9.910;2023-03-04T14:41:05;101185.48;;;5.99;72.79
55733;BME280;41637;52.364;9.910;2023-03-04T14:43:39;101182.89;;;6.00;72.99
55733;BME280;41637;52.364;9.910;2023-03-04T14:46:11;101182.75;;;6.00;72.76
55733;BME280;41637;52.364;9.910;2023-03-04T14:48:44;101174.73;;;5.87;71.83
55733;BME280;41637;52.364;9.910;2023-03-04T14:51:36;101176.05;;;5.82;71.24